createdAt,value
2018-08-07T00:00:09.883Z,23.70
2018-08-07T00:02:38.687Z,23.70
2018-08-07T00:05:07.412Z,23.70
2018-08-07T00:10:06.473Z,23.60
2018-08-07T00:12:35.179Z,23.60
2018-08-07T00:15:06.394Z,23.60
2018-08-07T00:17:35.118Z,23.60
2018-08-07T00:20:04.134Z,23.60
2018-08-07T00:22:33.046Z,23.60
2018-08-07T00:25:02.048Z,23.60
2018-08-07T00:27:30.751Z,23.60
2018-08-07T00:29:59.473Z,23.50
2018-08-07T00:32:28.247Z,23.50
2018-08-07T00:34:56.992Z,23.50
2018-08-07T00:37:25.792Z,23.50
2018-08-07T00:39:54.508Z,23.50
2018-08-07T00:42:23.272Z,23.50
2018-08-07T00:44:51.971Z,23.50
2018-08-07T00:47:20.694Z,23.50
2018-08-07T00:49:49.484Z,23.50
2018-08-07T00:52:18.225Z,23.50
2018-08-07T00:54:47.106Z,23.40
2018-08-07T00:57:15.842Z,23.40
2018-08-07T00:59:44.556Z,23.40
2018-08-07T01:02:13.362Z,23.40
2018-08-07T01:04:42.075Z,23.40
2018-08-07T01:07:10.924Z,23.30
2018-08-07T01:09:39.732Z,23.30
2018-08-07T01:12:09.051Z,23.30
2018-08-07T01:14:37.809Z,23.30
2018-08-07T01:19:35.191Z,23.30
2018-08-07T01:22:03.924Z,23.30
2018-08-07T01:24:32.637Z,23.20
2018-08-07T01:27:01.441Z,23.20
2018-08-07T01:29:30.145Z,23.20
2018-08-07T01:31:58.881Z,23.10
2018-08-07T01:34:27.592Z,23.00
2018-08-07T01:36:56.295Z,23.00
2018-08-07T01:41:53.599Z,23.00
2018-08-07T01:44:22.291Z,23.00
2018-08-07T01:46:51.055Z,23.00
2018-08-07T01:49:19.787Z,22.90
2018-08-07T01:51:48.505Z,22.80
2018-08-07T01:54:17.211Z,22.80
2018-08-07T01:56:45.944Z,22.90
2018-08-07T01:59:14.763Z,22.80
2018-08-07T02:01:43.484Z,22.80
2018-08-07T02:04:12.245Z,22.80
2018-08-07T02:06:40.962Z,22.80
2018-08-07T02:09:09.650Z,22.80
2018-08-07T02:11:38.373Z,22.70
2018-08-07T02:14:07.076Z,22.70
2018-08-07T02:16:35.905Z,22.70
2018-08-07T02:19:04.785Z,22.70
2018-08-07T02:24:01.949Z,22.70
2018-08-07T02:31:27.620Z,22.60
2018-08-07T02:33:56.341Z,22.60
2018-08-07T02:36:25.040Z,22.60
2018-08-07T02:38:53.781Z,22.50
2018-08-07T02:41:22.518Z,22.50
2018-08-07T02:43:51.226Z,22.50
2018-08-07T02:46:20.047Z,22.50
2018-08-07T02:48:48.836Z,22.40
2018-08-07T02:51:17.720Z,22.40
2018-08-07T02:53:46.447Z,22.30
2018-08-07T02:56:15.196Z,22.30
2018-08-07T02:58:43.923Z,22.30
2018-08-07T03:01:12.654Z,22.30
2018-08-07T03:03:41.372Z,22.30
2018-08-07T03:06:10.085Z,22.30
2018-08-07T03:08:38.880Z,22.30
2018-08-07T03:11:07.591Z,22.30
2018-08-07T03:13:36.294Z,22.20
2018-08-07T03:18:33.734Z,22.20
2018-08-07T03:21:02.462Z,22.10
2018-08-07T03:25:59.607Z,22.10
2018-08-07T03:28:28.345Z,22.10
2018-08-07T03:38:22.736Z,22.00
2018-08-07T03:40:51.556Z,22.00
2018-08-07T03:43:20.412Z,21.90
2018-08-07T03:45:49.380Z,21.90
2018-08-07T03:48:18.226Z,22.00
2018-08-07T03:58:12.387Z,22.00
2018-08-07T04:00:46.423Z,22.00
2018-08-07T04:03:15.460Z,21.90
2018-08-07T04:08:13.034Z,21.90
2018-08-07T04:13:10.235Z,21.90
2018-08-07T04:15:39.099Z,22.00
2018-08-07T04:18:07.862Z,22.00
2018-08-07T04:20:36.561Z,22.00
2018-08-07T04:25:33.985Z,22.00
2018-08-07T04:28:02.696Z,21.90
2018-08-07T04:30:31.626Z,22.00
2018-08-07T04:35:29.122Z,22.00
2018-08-07T04:37:58.016Z,22.10
2018-08-07T04:40:26.793Z,22.10
2018-08-07T04:42:55.519Z,22.10
2018-08-07T04:45:24.252Z,22.10
2018-08-07T04:47:53.059Z,22.10
2018-08-07T04:50:21.759Z,22.10
2018-08-07T04:52:50.604Z,22.10
2018-08-07T04:55:19.430Z,22.10
2018-08-07T04:57:48.145Z,22.10
2018-08-07T05:00:22.128Z,22.10
2018-08-07T05:02:50.872Z,22.20
2018-08-07T05:05:19.709Z,22.20
2018-08-07T05:07:48.399Z,22.20
2018-08-07T05:10:18.175Z,22.30
2018-08-07T05:12:47.262Z,22.30
2018-08-07T05:15:16.179Z,22.30
2018-08-07T05:17:46.245Z,22.30
2018-08-07T05:20:14.988Z,22.40
2018-08-07T05:22:43.977Z,22.30
2018-08-07T05:27:41.738Z,22.40
2018-08-07T05:30:12.080Z,22.40
2018-08-07T05:32:40.827Z,22.40
2018-08-07T05:35:10.442Z,22.50
2018-08-07T05:37:39.685Z,22.50
2018-08-07T05:40:09.615Z,22.50
2018-08-07T05:42:38.630Z,22.50
2018-08-07T05:47:37.114Z,22.60
2018-08-07T05:50:09.146Z,22.60
2018-08-07T05:52:37.757Z,22.60
2018-08-07T05:55:06.548Z,22.60
2018-08-07T06:00:07.285Z,22.70
2018-08-07T06:02:36.145Z,22.70
2018-08-07T06:05:05.784Z,22.80
2018-08-07T06:10:04.641Z,22.80
2018-08-07T06:12:33.383Z,22.80
2018-08-07T06:15:02.105Z,22.80
2018-08-07T06:17:30.822Z,22.80
2018-08-07T06:19:59.534Z,22.80
2018-08-07T06:22:28.254Z,22.80
2018-08-07T06:24:56.987Z,22.80
2018-08-07T06:27:25.723Z,22.90
2018-08-07T06:29:54.803Z,22.90
2018-08-07T06:32:23.527Z,22.90
2018-08-07T06:34:52.382Z,23.00
2018-08-07T06:37:21.680Z,23.00
2018-08-07T06:39:50.394Z,23.10
2018-08-07T06:42:19.095Z,23.10
2018-08-07T06:44:48.262Z,23.10
2018-08-07T06:47:17.012Z,23.20
2018-08-07T06:49:45.719Z,23.20
2018-08-07T06:52:14.448Z,23.20
2018-08-07T06:54:43.174Z,23.20
2018-08-07T06:57:12.246Z,23.20
2018-08-07T06:59:40.911Z,23.30
2018-08-07T07:02:09.670Z,23.30
2018-08-07T07:04:38.467Z,23.40
2018-08-07T07:07:07.215Z,23.40
2018-08-07T07:09:36.040Z,23.50
2018-08-07T07:12:04.929Z,23.50
2018-08-07T07:17:02.171Z,23.60
2018-08-07T07:19:31.041Z,23.60
2018-08-07T07:22:00.197Z,23.60
2018-08-07T07:24:28.963Z,23.60
2018-08-07T07:29:26.147Z,23.70
2018-08-07T07:31:54.872Z,23.70
2018-08-07T07:34:23.648Z,23.80
2018-08-07T07:36:52.335Z,23.80
2018-08-07T07:39:21.099Z,23.90
2018-08-07T07:41:49.830Z,23.90
2018-08-07T07:44:18.547Z,23.90
2018-08-07T07:46:47.390Z,24.00
2018-08-07T07:49:16.078Z,24.00
2018-08-07T07:51:45.120Z,24.00
2018-08-07T07:54:13.854Z,24.10
2018-08-07T07:56:42.706Z,24.10
2018-08-07T07:59:11.462Z,24.10
2018-08-07T08:01:40.168Z,24.20
2018-08-07T08:04:08.955Z,24.20
2018-08-07T08:06:37.707Z,24.30
2018-08-07T08:09:07.182Z,24.30
2018-08-07T08:11:36.068Z,24.40
2018-08-07T08:14:04.802Z,24.50
2018-08-07T08:16:33.537Z,24.40
2018-08-07T08:19:02.291Z,24.50
2018-08-07T08:21:31.088Z,24.50
2018-08-07T08:23:59.816Z,24.50
2018-08-07T08:26:28.696Z,24.60
2018-08-07T08:28:57.455Z,24.60
2018-08-07T08:31:26.179Z,24.60
2018-08-07T08:33:54.959Z,24.70
2018-08-07T08:38:52.237Z,24.80
2018-08-07T08:41:20.983Z,24.90
2018-08-07T08:43:49.715Z,24.90
2018-08-07T08:46:18.451Z,25.00
2018-08-07T08:48:47.232Z,25.00
2018-08-07T08:51:16.199Z,25.10
2018-08-07T08:53:45.111Z,25.10
2018-08-07T08:56:13.846Z,25.10
2018-08-07T09:01:11.099Z,25.20
2018-08-07T09:03:40.128Z,25.20
2018-08-07T09:06:08.879Z,25.30
2018-08-07T09:08:37.607Z,25.30
2018-08-07T09:11:06.456Z,25.40
2018-08-07T09:13:35.215Z,25.40
2018-08-07T09:16:04.155Z,25.50
2018-08-07T09:18:33.057Z,25.50
2018-08-07T09:23:30.249Z,25.50
2018-08-07T09:25:59.082Z,25.50
2018-08-07T09:28:27.827Z,25.60
2018-08-07T09:30:56.547Z,25.70
2018-08-07T09:33:25.399Z,25.70
2018-08-07T09:35:54.514Z,25.80
2018-08-07T09:38:23.697Z,25.90
2018-08-07T09:40:52.405Z,25.90
2018-08-07T09:43:21.159Z,26.00
2018-08-07T09:45:50.064Z,26.00
2018-08-07T09:48:18.814Z,26.10
2018-08-07T09:53:16.060Z,26.20
2018-08-07T09:55:44.932Z,26.30
2018-08-07T09:58:13.750Z,26.30
2018-08-07T10:00:47.799Z,26.30
2018-08-07T10:03:17.706Z,26.40
2018-08-07T10:05:46.475Z,26.40
2018-08-07T10:10:43.892Z,26.50
2018-08-07T10:13:12.764Z,26.60
2018-08-07T10:15:41.539Z,26.60
2018-08-07T10:18:10.345Z,26.70
2018-08-07T10:20:42.354Z,26.70
2018-08-07T10:23:11.153Z,26.80
2018-08-07T10:25:39.841Z,26.90
2018-08-07T10:28:08.580Z,26.90
2018-08-07T10:30:37.296Z,26.90
2018-08-07T10:33:06.238Z,27.00
2018-08-07T10:40:31.885Z,27.00
2018-08-07T10:43:00.818Z,27.10
2018-08-07T10:45:29.494Z,27.20
2018-08-07T10:47:58.289Z,27.20
2018-08-07T10:50:33.829Z,27.30
2018-08-07T10:53:02.569Z,27.40
2018-08-07T10:55:31.399Z,27.40
2018-08-07T10:58:00.698Z,27.30
2018-08-07T11:00:33.006Z,27.40
2018-08-07T11:03:02.376Z,27.50
2018-08-07T11:05:31.566Z,27.40
2018-08-07T11:08:00.512Z,27.50
2018-08-07T11:10:29.289Z,27.50
2018-08-07T11:12:58.049Z,27.60
2018-08-07T11:15:32.160Z,27.60
2018-08-07T11:18:01.850Z,27.60
2018-08-07T11:20:30.768Z,27.70
2018-08-07T11:23:00.973Z,27.70
2018-08-07T11:25:30.510Z,27.70
2018-08-07T11:27:59.780Z,27.80
2018-08-07T11:30:29.404Z,28.00
2018-08-07T11:32:59.331Z,28.00
2018-08-07T11:35:28.545Z,28.10
2018-08-07T11:37:58.917Z,28.10
2018-08-07T11:42:56.953Z,28.10
2018-08-07T11:45:27.447Z,28.10
2018-08-07T11:47:56.277Z,28.10
2018-08-07T11:50:26.775Z,28.20
2018-08-07T11:52:55.668Z,28.20
2018-08-07T11:55:24.763Z,28.30
2018-08-07T11:57:54.214Z,28.30
2018-08-07T12:00:25.549Z,28.40
2018-08-07T12:02:54.440Z,28.50
2018-08-07T12:05:23.861Z,28.50
2018-08-07T12:07:52.976Z,28.60
2018-08-07T12:10:22.078Z,28.60
2018-08-07T12:12:51.549Z,28.60
2018-08-07T12:15:21.790Z,28.70
2018-08-07T12:17:50.673Z,28.70
2018-08-07T12:20:19.617Z,28.70
2018-08-07T12:22:48.611Z,28.80
2018-08-07T12:25:18.299Z,28.80
2018-08-07T12:30:19.684Z,28.80
2018-08-07T12:32:48.410Z,28.80
2018-08-07T12:35:17.400Z,28.80
2018-08-07T12:37:46.313Z,28.90
2018-08-07T12:40:18.738Z,29.00
2018-08-07T12:42:48.149Z,29.00
2018-08-07T12:45:17.188Z,28.90
2018-08-07T12:47:46.670Z,28.90
2018-08-07T12:50:16.540Z,28.90
2018-08-07T12:52:45.509Z,29.00
2018-08-07T12:55:17.617Z,29.00
2018-08-07T12:57:47.000Z,29.00
2018-08-07T13:02:45.922Z,29.20
2018-08-07T13:05:14.936Z,29.40
2018-08-07T13:07:43.866Z,29.40
2018-08-07T13:10:14.343Z,29.40
2018-08-07T13:12:44.006Z,29.40
2018-08-07T13:15:14.774Z,29.40
2018-08-07T13:17:44.270Z,29.40
2018-08-07T13:20:13.213Z,29.40
2018-08-07T13:22:43.129Z,29.40
2018-08-07T13:25:13.817Z,29.40
2018-08-07T13:30:17.332Z,29.50
2018-08-07T13:32:46.498Z,29.60
2018-08-07T13:35:15.845Z,29.60
2018-08-07T13:37:47.499Z,29.60
2018-08-07T13:40:18.067Z,29.70
2018-08-07T13:42:46.968Z,29.70
2018-08-07T13:45:17.655Z,29.80
2018-08-07T13:50:19.596Z,29.90
2018-08-07T13:52:49.326Z,29.90
2018-08-07T13:55:19.298Z,29.90
2018-08-07T13:57:48.263Z,29.90
2018-08-07T14:00:20.070Z,29.90
2018-08-07T14:02:49.699Z,30.00
2018-08-07T14:05:19.646Z,30.10
2018-08-07T14:07:49.662Z,30.10
2018-08-07T14:10:19.429Z,30.20
2018-08-07T14:12:48.410Z,30.30
2018-08-07T14:15:18.264Z,30.30
2018-08-07T14:17:47.512Z,30.30
2018-08-07T14:20:17.361Z,30.40
2018-08-07T14:22:46.571Z,30.50
2018-08-07T14:25:22.262Z,30.50
2018-08-07T14:27:51.308Z,30.40
2018-08-07T14:32:50.753Z,30.40
2018-08-07T14:35:19.836Z,30.40
2018-08-07T14:37:49.110Z,30.50
2018-08-07T14:40:19.284Z,30.50
2018-08-07T14:42:49.185Z,30.60
2018-08-07T14:45:19.819Z,30.60
2018-08-07T14:47:50.175Z,30.50
2018-08-07T14:52:49.046Z,30.50
2018-08-07T14:57:46.584Z,30.70
2018-08-07T15:00:19.160Z,30.80
2018-08-07T15:02:48.344Z,30.80
2018-08-07T15:05:17.300Z,30.80
2018-08-07T15:07:46.449Z,30.80
2018-08-07T15:10:17.814Z,30.90
2018-08-07T15:12:47.141Z,31.00
2018-08-07T15:20:16.588Z,31.10
2018-08-07T15:22:47.174Z,31.10
2018-08-07T15:25:17.233Z,31.10
2018-08-07T15:27:46.124Z,31.10
2018-08-07T15:30:16.731Z,31.10
2018-08-07T15:32:46.364Z,31.10
2018-08-07T15:35:16.366Z,31.10
2018-08-07T15:37:45.686Z,31.10
2018-08-07T15:40:15.198Z,31.10
2018-08-07T15:42:44.791Z,31.10
2018-08-07T15:45:15.361Z,31.10
2018-08-07T15:47:44.668Z,31.00
2018-08-07T15:50:15.263Z,31.00
2018-08-07T15:52:45.547Z,31.10
2018-08-07T15:55:16.835Z,31.10
2018-08-07T15:57:45.724Z,31.10
2018-08-07T16:00:18.540Z,31.10
2018-08-07T16:02:47.514Z,31.20
2018-08-07T16:05:17.003Z,31.20
2018-08-07T16:07:45.953Z,31.20
2018-08-07T16:10:16.157Z,31.20
2018-08-07T16:12:46.321Z,31.20
2018-08-07T16:15:15.243Z,31.20
2018-08-07T16:17:45.445Z,31.20
2018-08-07T16:22:43.455Z,31.30
2018-08-07T16:25:14.294Z,31.30
2018-08-07T16:27:44.341Z,31.30
2018-08-07T16:30:20.854Z,31.30
2018-08-07T16:32:49.559Z,31.30
2018-08-07T16:35:18.535Z,31.30
2018-08-07T16:37:48.030Z,31.30
2018-08-07T16:40:18.782Z,31.40
2018-08-07T16:42:48.772Z,31.40
2018-08-07T16:45:18.821Z,31.40
2018-08-07T16:47:47.860Z,31.50
2018-08-07T16:50:20.976Z,31.50
2018-08-07T16:52:51.110Z,31.50
2018-08-07T16:55:20.446Z,31.60
2018-08-07T16:57:49.602Z,31.60
2018-08-07T17:00:18.434Z,31.60
2018-08-07T17:02:47.317Z,31.60
2018-08-07T17:05:16.908Z,31.60
2018-08-07T17:10:17.123Z,31.70
2018-08-07T17:12:46.010Z,31.70
2018-08-07T17:15:14.931Z,31.80
2018-08-07T17:17:44.320Z,31.80
2018-08-07T17:20:15.692Z,31.80
2018-08-07T17:22:44.763Z,31.80
2018-08-07T17:25:15.181Z,31.80
2018-08-07T17:27:45.038Z,31.80
2018-08-07T17:30:16.279Z,31.70
2018-08-07T17:32:45.629Z,31.70
2018-08-07T17:37:45.833Z,31.80
2018-08-07T17:40:16.238Z,32.00
2018-08-07T17:42:45.042Z,32.40
2018-08-07T17:45:14.037Z,32.70
2018-08-07T17:47:43.247Z,32.80
2018-08-07T17:50:16.648Z,32.70
2018-08-07T17:52:45.726Z,32.50
2018-08-07T17:55:14.858Z,32.20
2018-08-07T17:57:43.701Z,32.00
2018-08-07T18:00:14.448Z,31.80
2018-08-07T18:02:44.076Z,31.70
2018-08-07T18:05:12.967Z,31.60
2018-08-07T18:07:44.050Z,31.50
2018-08-07T18:15:12.908Z,31.20
2018-08-07T18:17:42.508Z,31.10
2018-08-07T18:20:14.145Z,31.10
2018-08-07T18:22:43.030Z,31.00
2018-08-07T18:25:12.039Z,30.90
2018-08-07T18:27:41.044Z,30.80
2018-08-07T18:30:14.244Z,30.80
2018-08-07T18:32:43.697Z,30.80
2018-08-07T18:35:16.746Z,30.70
2018-08-07T18:37:47.241Z,30.70
2018-08-07T18:40:16.105Z,30.60
2018-08-07T18:42:45.052Z,30.60
2018-08-07T18:45:14.658Z,30.50
2018-08-07T18:50:14.095Z,30.40
2018-08-07T18:52:43.016Z,30.40
2018-08-07T18:55:13.275Z,30.30
2018-08-07T18:57:43.017Z,30.30
2018-08-07T19:00:14.456Z,30.20
2018-08-07T19:02:43.532Z,30.20
2018-08-07T19:07:42.767Z,30.10
2018-08-07T19:10:12.316Z,30.10
2018-08-07T19:12:41.926Z,30.10
2018-08-07T19:15:12.164Z,30.00
2018-08-07T19:17:41.184Z,30.00
2018-08-07T19:20:13.648Z,29.90
2018-08-07T19:22:42.569Z,29.90
2018-08-07T19:25:12.276Z,29.90
2018-08-07T19:30:12.752Z,29.80
2018-08-07T19:32:41.591Z,29.80
2018-08-07T19:35:11.610Z,29.70
2018-08-07T19:37:40.635Z,29.70
2018-08-07T19:40:11.664Z,29.70
2018-08-07T19:42:40.614Z,29.70
2018-08-07T19:45:10.518Z,29.60
2018-08-07T19:47:39.740Z,29.60
2018-08-07T19:50:10.076Z,29.60
2018-08-07T19:52:39.138Z,29.60
2018-08-07T19:55:11.128Z,29.50
2018-08-07T19:57:39.959Z,29.50
2018-08-07T20:00:17.283Z,29.50
2018-08-07T20:02:46.306Z,29.40
2018-08-07T20:05:15.685Z,29.40
2018-08-07T20:07:44.651Z,29.40
2018-08-07T20:10:14.767Z,29.40
2018-08-07T20:12:43.793Z,29.40
2018-08-07T20:15:16.397Z,29.40
2018-08-07T20:17:45.842Z,29.30
2018-08-07T20:20:14.714Z,29.30
2018-08-07T20:22:43.769Z,29.30
2018-08-07T20:25:12.616Z,29.30
2018-08-07T20:27:41.516Z,29.30
2018-08-07T20:30:15.763Z,29.30
2018-08-07T20:32:45.421Z,29.30
2018-08-07T20:40:16.442Z,29.20
2018-08-07T20:42:45.503Z,29.20
2018-08-07T20:45:14.861Z,29.20
2018-08-07T20:47:43.874Z,29.10
2018-08-07T20:52:44.038Z,29.10
2018-08-07T20:55:13.292Z,29.10
2018-08-07T21:00:22.386Z,29.00
2018-08-07T21:02:51.446Z,29.00
2018-08-07T21:05:20.306Z,29.00
2018-08-07T21:07:49.259Z,28.90
2018-08-07T21:10:24.816Z,28.90
2018-08-07T21:17:50.906Z,28.80
2018-08-07T21:20:20.887Z,28.80
2018-08-07T21:22:49.895Z,28.80
2018-08-07T21:25:22.348Z,28.70
2018-08-07T21:27:55.830Z,28.70
2018-08-07T21:32:56.664Z,28.70
2018-08-07T21:35:25.448Z,28.70
2018-08-07T21:37:54.220Z,28.60
2018-08-07T21:40:23.867Z,28.60
2018-08-07T21:42:53.817Z,28.60
2018-08-07T21:45:22.659Z,28.50
2018-08-07T21:47:52.373Z,28.50
2018-08-07T21:50:22.639Z,28.60
2018-08-07T21:52:51.407Z,28.50
2018-08-07T21:55:20.730Z,28.50
2018-08-07T21:57:49.816Z,28.50
2018-08-07T22:00:51.220Z,28.50
2018-08-07T22:03:20.266Z,28.40
2018-08-07T22:05:49.869Z,28.40
2018-08-07T22:10:47.439Z,28.30
2018-08-07T22:13:16.184Z,28.30
2018-08-07T22:15:44.901Z,28.30
2018-08-07T22:18:13.655Z,28.30
2018-08-07T22:20:42.395Z,28.30
2018-08-07T22:25:39.563Z,28.20
2018-08-07T22:28:08.306Z,28.20
2018-08-07T22:30:37.160Z,28.10
2018-08-07T22:33:10.369Z,28.10
2018-08-07T22:35:39.096Z,28.10
2018-08-07T22:38:07.836Z,28.10
2018-08-07T22:40:36.607Z,28.10
2018-08-07T22:43:05.367Z,28.10
2018-08-07T22:45:34.121Z,28.00
2018-08-07T22:48:02.985Z,28.00
2018-08-07T22:50:32.194Z,28.00
2018-08-07T22:53:01.447Z,28.00
2018-08-07T22:55:30.326Z,28.00
2018-08-07T22:57:59.189Z,27.90
2018-08-07T23:00:28.268Z,27.90
2018-08-07T23:02:57.060Z,27.90
2018-08-07T23:05:29.154Z,27.90
2018-08-07T23:07:58.230Z,27.90
2018-08-07T23:10:27.220Z,27.90
2018-08-07T23:12:56.429Z,27.80
2018-08-07T23:15:25.397Z,27.80
2018-08-07T23:17:54.277Z,27.80
2018-08-07T23:20:25.016Z,27.70
2018-08-07T23:22:55.524Z,27.70
2018-08-07T23:27:52.886Z,27.70
2018-08-07T23:30:22.011Z,27.70
2018-08-07T23:32:50.770Z,27.60
2018-08-07T23:35:19.596Z,27.70
2018-08-07T23:37:48.300Z,27.60
2018-08-07T23:40:17.160Z,27.60
2018-08-07T23:42:46.016Z,27.60
2018-08-07T23:45:15.992Z,27.60
2018-08-07T23:47:44.763Z,27.60
